createdAt,value
2023-04-16T00:00:11.000Z,99.99
2023-04-16T00:01:16.000Z,99.99
2023-04-16T00:02:20.000Z,99.99
2023-04-16T00:03:25.000Z,99.99
2023-04-16T00:04:29.000Z,99.99
2023-04-16T00:05:33.000Z,99.99
2023-04-16T00:06:37.000Z,99.99
2023-04-16T00:07:41.000Z,99.99
2023-04-16T00:08:45.000Z,99.99
2023-04-16T00:09:50.000Z,99.99
2023-04-16T00:10:54.000Z,99.99
2023-04-16T00:11:58.000Z,99.99
2023-04-16T00:13:02.000Z,99.99
2023-04-16T00:14:06.000Z,99.99
2023-04-16T00:15:10.000Z,99.99
2023-04-16T00:16:15.000Z,99.99
2023-04-16T00:17:19.000Z,99.99
2023-04-16T00:18:23.000Z,99.99
2023-04-16T00:19:27.000Z,99.99
2023-04-16T00:20:31.000Z,99.99
2023-04-16T00:21:35.000Z,99.99
2023-04-16T00:22:39.000Z,99.99
2023-04-16T00:23:44.000Z,99.99
2023-04-16T00:24:48.000Z,99.99
2023-04-16T00:25:52.000Z,99.99
2023-04-16T00:26:56.000Z,99.99
2023-04-16T00:28:00.000Z,99.99
2023-04-16T00:29:05.000Z,99.99
2023-04-16T00:30:09.000Z,99.99
2023-04-16T00:31:13.000Z,99.99
2023-04-16T00:32:17.000Z,99.99
2023-04-16T00:33:21.000Z,99.99
2023-04-16T00:34:25.000Z,99.99
2023-04-16T00:35:29.000Z,99.99
2023-04-16T00:36:34.000Z,99.99
2023-04-16T00:37:38.000Z,99.99
2023-04-16T00:38:42.000Z,99.99
2023-04-16T00:39:46.000Z,99.99
2023-04-16T00:40:51.000Z,99.99
2023-04-16T00:41:55.000Z,99.99
2023-04-16T00:42:59.000Z,99.99
2023-04-16T00:44:03.000Z,99.99
2023-04-16T00:45:07.000Z,99.99
2023-04-16T00:46:11.000Z,99.99
2023-04-16T00:47:15.000Z,99.99
2023-04-16T00:48:19.000Z,99.99
2023-04-16T00:49:24.000Z,99.99
2023-04-16T00:50:28.000Z,99.99
2023-04-16T00:51:32.000Z,99.99
2023-04-16T00:52:36.000Z,99.99
2023-04-16T00:53:40.000Z,99.99
2023-04-16T00:54:44.000Z,99.99
2023-04-16T00:55:49.000Z,99.99
2023-04-16T00:56:53.000Z,99.99
2023-04-16T00:57:57.000Z,99.99
2023-04-16T00:59:02.000Z,99.99
2023-04-16T01:00:06.000Z,99.99
2023-04-16T01:01:10.000Z,99.99
2023-04-16T01:02:15.000Z,99.99
2023-04-16T01:03:19.000Z,99.99
2023-04-16T01:04:23.000Z,99.99
2023-04-16T01:05:27.000Z,99.99
2023-04-16T01:06:31.000Z,99.99
2023-04-16T01:07:35.000Z,99.99
2023-04-16T01:08:39.000Z,99.99
2023-04-16T01:09:43.000Z,99.99
2023-04-16T01:10:48.000Z,99.99
2023-04-16T01:11:52.000Z,99.99
2023-04-16T01:12:56.000Z,99.99
2023-04-16T01:14:00.000Z,99.99
2023-04-16T01:15:05.000Z,99.99
2023-04-16T01:16:09.000Z,99.99
2023-04-16T01:17:13.000Z,99.99
2023-04-16T01:18:17.000Z,99.99
2023-04-16T01:19:21.000Z,99.99
2023-04-16T01:20:26.000Z,99.99
2023-04-16T01:21:30.000Z,99.99
2023-04-16T01:22:34.000Z,99.99
2023-04-16T01:23:38.000Z,99.99
2023-04-16T01:24:42.000Z,99.99
2023-04-16T01:25:46.000Z,99.99
2023-04-16T01:26:50.000Z,99.99
2023-04-16T01:27:54.000Z,99.99
2023-04-16T01:28:58.000Z,99.99
2023-04-16T01:30:03.000Z,99.99
2023-04-16T01:31:07.000Z,99.99
2023-04-16T01:32:11.000Z,99.99
2023-04-16T01:33:16.000Z,99.99
2023-04-16T01:34:20.000Z,99.99
2023-04-16T01:35:24.000Z,99.99
2023-04-16T01:36:28.000Z,99.99
2023-04-16T01:37:32.000Z,99.99
2023-04-16T01:38:36.000Z,99.99
2023-04-16T01:39:40.000Z,99.99
2023-04-16T01:40:44.000Z,99.99
2023-04-16T01:41:49.000Z,99.99
2023-04-16T01:42:53.000Z,99.99
2023-04-16T01:43:57.000Z,99.99
2023-04-16T01:45:02.000Z,99.99
2023-04-16T01:46:06.000Z,99.99
2023-04-16T01:47:10.000Z,99.99
2023-04-16T01:48:14.000Z,99.99
2023-04-16T01:49:18.000Z,99.99
2023-04-16T01:50:22.000Z,99.99
2023-04-16T01:51:26.000Z,99.99
2023-04-16T01:52:30.000Z,99.99
2023-04-16T01:53:35.000Z,99.99
2023-04-16T01:54:39.000Z,99.99
2023-04-16T01:55:43.000Z,99.99
2023-04-16T01:56:47.000Z,99.99
2023-04-16T01:57:51.000Z,99.99
2023-04-16T01:58:55.000Z,99.99
2023-04-16T01:59:59.000Z,99.99
2023-04-16T02:01:04.000Z,99.99
2023-04-16T02:02:08.000Z,99.99
2023-04-16T02:03:12.000Z,99.99
2023-04-16T02:04:16.000Z,99.99
2023-04-16T02:05:20.000Z,99.99
2023-04-16T02:06:25.000Z,99.99
2023-04-16T02:07:29.000Z,99.99
2023-04-16T02:08:33.000Z,99.99
2023-04-16T02:09:37.000Z,99.99
2023-04-16T02:10:41.000Z,99.99
2023-04-16T02:11:46.000Z,99.99
2023-04-16T02:12:50.000Z,99.99
2023-04-16T02:13:54.000Z,99.99
2023-04-16T02:14:58.000Z,99.99
2023-04-16T02:16:02.000Z,99.99
2023-04-16T02:17:07.000Z,99.99
2023-04-16T02:18:11.000Z,99.99
2023-04-16T02:19:15.000Z,99.99
2023-04-16T02:20:19.000Z,99.99
2023-04-16T02:21:23.000Z,99.99
2023-04-16T02:22:28.000Z,99.99
2023-04-16T02:23:32.000Z,99.99
2023-04-16T02:24:36.000Z,99.99
2023-04-16T02:25:40.000Z,99.99
2023-04-16T02:26:44.000Z,99.99
2023-04-16T02:27:48.000Z,99.99
2023-04-16T02:28:52.000Z,99.99
2023-04-16T02:29:56.000Z,99.99
2023-04-16T02:31:01.000Z,99.99
2023-04-16T02:32:05.000Z,99.99
2023-04-16T02:33:10.000Z,99.99
2023-04-16T02:34:14.000Z,99.99
2023-04-16T02:35:18.000Z,99.99
2023-04-16T02:36:22.000Z,99.99
2023-04-16T02:37:26.000Z,99.99
2023-04-16T02:38:30.000Z,99.99
2023-04-16T02:39:35.000Z,99.99
2023-04-16T02:40:39.000Z,99.99
2023-04-16T02:41:43.000Z,99.99
2023-04-16T02:42:47.000Z,99.99
2023-04-16T02:43:56.000Z,99.99
2023-04-16T02:45:00.000Z,99.99
2023-04-16T02:46:04.000Z,99.99
2023-04-16T02:47:08.000Z,99.99
2023-04-16T02:48:13.000Z,99.99
2023-04-16T02:49:17.000Z,99.99
2023-04-16T02:50:21.000Z,99.99
2023-04-16T02:51:25.000Z,99.99
2023-04-16T02:52:29.000Z,99.99
2023-04-16T02:53:33.000Z,99.99
2023-04-16T02:54:37.000Z,99.99
2023-04-16T02:55:42.000Z,99.99
2023-04-16T02:56:46.000Z,99.99
2023-04-16T02:57:50.000Z,99.99
2023-04-16T02:58:54.000Z,99.99
2023-04-16T02:59:59.000Z,99.99
2023-04-16T03:01:03.000Z,99.99
2023-04-16T03:02:07.000Z,99.99
2023-04-16T03:03:12.000Z,99.99
2023-04-16T03:04:16.000Z,99.99
2023-04-16T03:05:20.000Z,99.99
2023-04-16T03:06:24.000Z,99.99
2023-04-16T03:07:28.000Z,99.99
2023-04-16T03:08:33.000Z,99.99
2023-04-16T03:09:37.000Z,99.99
2023-04-16T03:10:41.000Z,99.99
2023-04-16T03:11:45.000Z,99.99
2023-04-16T03:12:49.000Z,99.99
2023-04-16T03:13:54.000Z,99.99
2023-04-16T03:14:58.000Z,99.99
2023-04-16T03:16:02.000Z,99.99
2023-04-16T03:17:06.000Z,99.99
2023-04-16T03:18:11.000Z,99.99
2023-04-16T03:19:15.000Z,99.99
2023-04-16T03:20:19.000Z,99.99
2023-04-16T03:21:23.000Z,99.99
2023-04-16T03:22:27.000Z,99.99
2023-04-16T03:23:32.000Z,99.99
2023-04-16T03:24:36.000Z,99.99
2023-04-16T03:25:40.000Z,99.99
2023-04-16T03:26:44.000Z,99.99
2023-04-16T03:27:49.000Z,99.99
2023-04-16T03:28:53.000Z,99.99
2023-04-16T03:29:57.000Z,99.99
2023-04-16T03:31:01.000Z,99.99
2023-04-16T03:32:05.000Z,99.99
2023-04-16T03:33:10.000Z,99.99
2023-04-16T03:34:19.000Z,99.99
2023-04-16T03:35:23.000Z,99.99
2023-04-16T03:36:27.000Z,99.99
2023-04-16T03:37:32.000Z,99.99
2023-04-16T03:38:36.000Z,99.99
2023-04-16T03:39:40.000Z,99.99
2023-04-16T03:40:44.000Z,99.99
2023-04-16T03:41:48.000Z,99.99
2023-04-16T03:42:53.000Z,99.99
2023-04-16T03:44:02.000Z,99.99
2023-04-16T03:45:06.000Z,99.99
2023-04-16T03:46:10.000Z,99.99
2023-04-16T03:47:15.000Z,99.99
2023-04-16T03:48:19.000Z,99.99
2023-04-16T03:49:23.000Z,99.99
2023-04-16T03:50:27.000Z,99.99
2023-04-16T03:51:32.000Z,99.99
2023-04-16T03:52:36.000Z,99.99
2023-04-16T03:53:40.000Z,99.99
2023-04-16T03:54:44.000Z,99.99
2023-04-16T03:55:48.000Z,99.99
2023-04-16T03:56:53.000Z,99.99
2023-04-16T03:57:57.000Z,99.99
2023-04-16T03:59:01.000Z,99.99
2023-04-16T04:00:05.000Z,99.99
2023-04-16T04:01:10.000Z,99.99
2023-04-16T04:02:14.000Z,99.99
2023-04-16T04:03:18.000Z,99.99
2023-04-16T04:04:23.000Z,99.99
2023-04-16T04:05:27.000Z,99.99
2023-04-16T04:06:31.000Z,99.99
2023-04-16T04:07:35.000Z,99.99
2023-04-16T04:08:40.000Z,99.99
2023-04-16T04:09:44.000Z,99.99
2023-04-16T04:10:48.000Z,99.99
2023-04-16T04:11:52.000Z,99.99
2023-04-16T04:12:57.000Z,99.99
2023-04-16T04:14:01.000Z,99.99
2023-04-16T04:15:05.000Z,99.99
2023-04-16T04:16:10.000Z,99.99
2023-04-16T04:17:14.000Z,99.99
2023-04-16T04:18:18.000Z,99.99
2023-04-16T04:19:22.000Z,99.99
2023-04-16T04:20:27.000Z,99.99
2023-04-16T04:21:31.000Z,99.99
2023-04-16T04:22:35.000Z,99.99
2023-04-16T04:23:39.000Z,99.99
2023-04-16T04:24:44.000Z,99.99
2023-04-16T04:25:49.000Z,99.99
2023-04-16T04:26:53.000Z,99.99
2023-04-16T04:27:58.000Z,99.99
2023-04-16T04:29:02.000Z,99.99
2023-04-16T04:30:06.000Z,99.99
2023-04-16T04:31:10.000Z,99.99
2023-04-16T04:32:14.000Z,99.99
2023-04-16T04:33:19.000Z,99.99
2023-04-16T04:34:23.000Z,99.99
2023-04-16T04:35:27.000Z,99.99
2023-04-16T04:36:32.000Z,99.99
2023-04-16T04:37:36.000Z,99.99
2023-04-16T04:38:40.000Z,99.99
2023-04-16T04:39:44.000Z,99.99
2023-04-16T04:40:49.000Z,99.99
2023-04-16T04:41:53.000Z,99.99
2023-04-16T04:42:57.000Z,99.99
2023-04-16T04:44:01.000Z,99.99
2023-04-16T04:45:06.000Z,99.99
2023-04-16T04:46:10.000Z,99.99
2023-04-16T04:47:14.000Z,99.99
2023-04-16T04:48:18.000Z,99.99
2023-04-16T04:49:23.000Z,99.99
2023-04-16T04:50:27.000Z,99.99
2023-04-16T04:51:31.000Z,99.99
2023-04-16T04:52:35.000Z,99.99
2023-04-16T04:53:40.000Z,99.99
2023-04-16T04:54:44.000Z,99.99
2023-04-16T04:55:48.000Z,99.99
2023-04-16T04:56:52.000Z,99.99
2023-04-16T04:57:57.000Z,99.99
2023-04-16T04:59:01.000Z,99.99
2023-04-16T05:00:05.000Z,99.99
2023-04-16T05:01:10.000Z,99.99
2023-04-16T05:02:14.000Z,99.99
2023-04-16T05:03:18.000Z,99.99
2023-04-16T05:04:22.000Z,99.99
2023-04-16T05:05:27.000Z,99.99
2023-04-16T05:06:31.000Z,99.99
2023-04-16T05:07:35.000Z,99.99
2023-04-16T05:08:40.000Z,99.99
2023-04-16T05:09:44.000Z,99.99
2023-04-16T05:10:48.000Z,99.99
2023-04-16T05:11:52.000Z,99.99
2023-04-16T05:12:57.000Z,99.99
2023-04-16T05:14:01.000Z,99.99
2023-04-16T05:15:05.000Z,99.99
2023-04-16T05:16:09.000Z,99.99
2023-04-16T05:17:14.000Z,99.99
2023-04-16T05:18:18.000Z,99.99
2023-04-16T05:19:22.000Z,99.99
2023-04-16T05:20:27.000Z,99.99
2023-04-16T05:21:31.000Z,99.99
2023-04-16T05:22:35.000Z,99.99
2023-04-16T05:23:39.000Z,99.99
2023-04-16T05:24:43.000Z,99.99
2023-04-16T05:25:48.000Z,99.99
2023-04-16T05:26:52.000Z,99.99
2023-04-16T05:27:56.000Z,99.99
2023-04-16T05:29:00.000Z,99.99
2023-04-16T05:30:05.000Z,99.99
2023-04-16T05:31:09.000Z,99.99
2023-04-16T05:32:13.000Z,99.99
2023-04-16T05:33:17.000Z,99.99
2023-04-16T05:34:21.000Z,99.99
2023-04-16T05:35:26.000Z,99.99
2023-04-16T05:36:30.000Z,99.99
2023-04-16T05:37:34.000Z,99.99
2023-04-16T05:38:38.000Z,99.99
2023-04-16T05:39:42.000Z,99.99
2023-04-16T05:40:47.000Z,99.99
2023-04-16T05:41:51.000Z,99.99
2023-04-16T05:42:55.000Z,99.99
2023-04-16T05:43:59.000Z,99.99
2023-04-16T05:45:04.000Z,99.99
2023-04-16T05:46:08.000Z,99.99
2023-04-16T05:47:12.000Z,99.99
2023-04-16T05:48:17.000Z,99.99
2023-04-16T05:49:21.000Z,99.99
2023-04-16T05:50:26.000Z,99.99
2023-04-16T05:51:30.000Z,99.99
2023-04-16T05:52:34.000Z,99.99
2023-04-16T05:53:38.000Z,99.99
2023-04-16T05:54:43.000Z,99.99
2023-04-16T05:55:47.000Z,99.99
2023-04-16T05:56:51.000Z,99.99
2023-04-16T05:57:55.000Z,99.99
2023-04-16T05:59:00.000Z,99.99
2023-04-16T06:00:04.000Z,99.99
2023-04-16T06:01:08.000Z,99.99
2023-04-16T06:02:12.000Z,99.99
2023-04-16T06:03:17.000Z,99.99
2023-04-16T06:04:21.000Z,99.99
2023-04-16T06:05:25.000Z,99.99
2023-04-16T06:06:29.000Z,99.99
2023-04-16T06:07:33.000Z,99.99
2023-04-16T06:08:37.000Z,99.99
2023-04-16T06:09:42.000Z,99.99
2023-04-16T06:10:46.000Z,99.99
2023-04-16T06:11:50.000Z,99.99
2023-04-16T06:12:54.000Z,99.99
2023-04-16T06:13:59.000Z,99.99
2023-04-16T06:15:03.000Z,99.99
2023-04-16T06:16:07.000Z,99.99
2023-04-16T06:17:11.000Z,99.99
2023-04-16T06:18:15.000Z,99.99
2023-04-16T06:19:19.000Z,99.99
2023-04-16T06:20:23.000Z,99.99
2023-04-16T06:21:28.000Z,99.99
2023-04-16T06:22:32.000Z,99.99
2023-04-16T06:23:36.000Z,99.99
2023-04-16T06:24:40.000Z,99.99
2023-04-16T06:25:44.000Z,99.99
2023-04-16T06:26:49.000Z,99.99
2023-04-16T06:27:53.000Z,99.99
2023-04-16T06:28:57.000Z,99.99
2023-04-16T06:30:01.000Z,99.99
2023-04-16T06:31:06.000Z,99.99
2023-04-16T06:32:10.000Z,99.99
2023-04-16T06:33:14.000Z,99.99
2023-04-16T06:34:18.000Z,99.99
2023-04-16T06:35:22.000Z,99.99
2023-04-16T06:36:27.000Z,99.99
2023-04-16T06:37:31.000Z,99.99
2023-04-16T06:38:35.000Z,99.99
2023-04-16T06:39:39.000Z,99.99
2023-04-16T06:40:43.000Z,99.99
2023-04-16T06:41:48.000Z,99.99
2023-04-16T06:42:52.000Z,99.99
2023-04-16T06:43:56.000Z,99.99
2023-04-16T06:45:00.000Z,99.99
2023-04-16T06:46:05.000Z,99.99
2023-04-16T06:47:09.000Z,99.99
2023-04-16T06:48:13.000Z,99.99
2023-04-16T06:49:17.000Z,99.99
2023-04-16T06:50:22.000Z,99.99
2023-04-16T06:51:26.000Z,99.99
2023-04-16T06:52:30.000Z,99.99
2023-04-16T06:53:34.000Z,99.99
2023-04-16T06:54:44.000Z,99.99
2023-04-16T06:55:48.000Z,99.99
2023-04-16T06:56:52.000Z,99.99
2023-04-16T06:57:57.000Z,99.99
2023-04-16T06:59:01.000Z,99.52
2023-04-16T07:00:05.000Z,99.31
2023-04-16T07:01:09.000Z,99.21
2023-04-16T07:02:14.000Z,99.31
2023-04-16T07:03:18.000Z,99.31
2023-04-16T07:04:22.000Z,99.01
2023-04-16T07:05:26.000Z,98.08
2023-04-16T07:06:30.000Z,98.39
2023-04-16T07:07:34.000Z,98.39
2023-04-16T07:08:38.000Z,98.19
2023-04-16T07:09:42.000Z,97.92
2023-04-16T07:10:47.000Z,98.9
2023-04-16T07:11:51.000Z,99.41
2023-04-16T07:12:55.000Z,99.77
2023-04-16T07:13:59.000Z,99.05
2023-04-16T07:15:03.000Z,99.21
2023-04-16T07:16:08.000Z,98.8
2023-04-16T07:17:12.000Z,98.8
2023-04-16T07:18:16.000Z,99.31
2023-04-16T07:19:20.000Z,99.52
2023-04-16T07:20:25.000Z,99.47
2023-04-16T07:21:29.000Z,99.27
2023-04-16T07:22:33.000Z,99.02
2023-04-16T07:23:37.000Z,98.97
2023-04-16T07:24:41.000Z,98.86
2023-04-16T07:25:45.000Z,98.61
2023-04-16T07:26:50.000Z,98.0
2023-04-16T07:27:54.000Z,97.14
2023-04-16T07:28:58.000Z,96.73
2023-04-16T07:30:02.000Z,96.63
2023-04-16T07:31:06.000Z,95.92
2023-04-16T07:32:11.000Z,93.62
2023-04-16T07:33:15.000Z,93.25
2023-04-16T07:34:19.000Z,93.96
2023-04-16T07:35:23.000Z,95.64
2023-04-16T07:36:28.000Z,95.79
2023-04-16T07:37:32.000Z,95.02
2023-04-16T07:38:36.000Z,95.43
2023-04-16T07:39:40.000Z,96.25
2023-04-16T07:40:49.000Z,96.61
2023-04-16T07:41:54.000Z,96.77
2023-04-16T07:42:58.000Z,97.08
2023-04-16T07:44:02.000Z,97.03
2023-04-16T07:45:06.000Z,96.42
2023-04-16T07:46:10.000Z,96.42
2023-04-16T07:47:14.000Z,96.27
2023-04-16T07:48:18.000Z,96.27
2023-04-16T07:49:22.000Z,96.06
2023-04-16T07:50:26.000Z,94.64
2023-04-16T07:51:31.000Z,94.68
2023-04-16T07:52:35.000Z,94.48
2023-04-16T07:53:39.000Z,94.98
2023-04-16T07:54:43.000Z,95.39
2023-04-16T07:55:47.000Z,95.29
2023-04-16T07:56:51.000Z,94.37
2023-04-16T07:57:55.000Z,94.11
2023-04-16T07:58:59.000Z,94.27
2023-04-16T08:00:03.000Z,94.89
2023-04-16T08:01:08.000Z,95.95
2023-04-16T08:02:12.000Z,95.48
2023-04-16T08:03:16.000Z,96.41
2023-04-16T08:04:20.000Z,97.16
2023-04-16T08:05:24.000Z,97.37
2023-04-16T08:06:28.000Z,96.34
2023-04-16T08:07:32.000Z,96.1
2023-04-16T08:08:36.000Z,96.15
2023-04-16T08:09:40.000Z,95.85
2023-04-16T08:10:44.000Z,95.7
2023-04-16T08:11:49.000Z,95.86
2023-04-16T08:12:53.000Z,96.06
2023-04-16T08:13:57.000Z,96.12
2023-04-16T08:15:01.000Z,96.12
2023-04-16T08:16:05.000Z,95.77
2023-04-16T08:17:10.000Z,95.67
2023-04-16T08:18:14.000Z,95.67
2023-04-16T08:19:18.000Z,95.52
2023-04-16T08:20:22.000Z,95.21
2023-04-16T08:21:26.000Z,94.91
2023-04-16T08:22:31.000Z,92.77
2023-04-16T08:23:35.000Z,91.79
2023-04-16T08:24:39.000Z,92.76
2023-04-16T08:25:43.000Z,93.0
2023-04-16T08:26:47.000Z,94.12
2023-04-16T08:27:51.000Z,93.1
2023-04-16T08:28:55.000Z,93.62
2023-04-16T08:29:59.000Z,93.77
2023-04-16T08:31:04.000Z,93.98
2023-04-16T08:32:08.000Z,93.88
2023-04-16T08:33:12.000Z,93.77
2023-04-16T08:34:16.000Z,93.98
2023-04-16T08:35:20.000Z,94.04
2023-04-16T08:36:24.000Z,93.93
2023-04-16T08:37:28.000Z,93.84
2023-04-16T08:38:33.000Z,93.63
2023-04-16T08:39:37.000Z,94.04
2023-04-16T08:40:41.000Z,93.99
2023-04-16T08:41:45.000Z,94.04
2023-04-16T08:42:49.000Z,91.22
2023-04-16T08:43:54.000Z,91.16
2023-04-16T08:44:58.000Z,92.8
2023-04-16T08:46:02.000Z,94.84
2023-04-16T08:47:06.000Z,94.7
2023-04-16T08:48:10.000Z,94.84
2023-04-16T08:49:14.000Z,93.41
2023-04-16T08:50:19.000Z,94.02
2023-04-16T08:51:23.000Z,94.9
2023-04-16T08:52:27.000Z,94.79
2023-04-16T08:53:32.000Z,93.92
2023-04-16T08:54:36.000Z,93.47
2023-04-16T08:55:40.000Z,93.22
2023-04-16T08:56:44.000Z,93.07
2023-04-16T08:57:48.000Z,89.61
2023-04-16T08:58:52.000Z,88.84
2023-04-16T08:59:56.000Z,89.34
2023-04-16T09:01:00.000Z,91.18
2023-04-16T09:02:04.000Z,92.61
2023-04-16T09:03:08.000Z,91.91
2023-04-16T09:04:13.000Z,91.56
2023-04-16T09:05:17.000Z,92.09
2023-04-16T09:06:21.000Z,92.14
2023-04-16T09:07:25.000Z,91.9
2023-04-16T09:08:29.000Z,87.67
2023-04-16T09:09:33.000Z,90.4
2023-04-16T09:10:37.000Z,87.96
2023-04-16T09:11:41.000Z,86.53
2023-04-16T09:12:45.000Z,89.77
2023-04-16T09:13:49.000Z,90.18
2023-04-16T09:14:53.000Z,88.61
2023-04-16T09:15:57.000Z,91.46
2023-04-16T09:17:01.000Z,91.11
2023-04-16T09:18:05.000Z,91.52
2023-04-16T09:19:09.000Z,89.89
2023-04-16T09:20:14.000Z,90.4
2023-04-16T09:21:18.000Z,87.49
2023-04-16T09:22:22.000Z,89.79
2023-04-16T09:23:26.000Z,89.85
2023-04-16T09:24:30.000Z,87.14
2023-04-16T09:25:34.000Z,90.34
2023-04-16T09:26:38.000Z,88.81
2023-04-16T09:27:42.000Z,89.63
2023-04-16T09:28:46.000Z,90.14
2023-04-16T09:29:50.000Z,90.24
2023-04-16T09:30:54.000Z,90.05
2023-04-16T09:31:59.000Z,89.28
2023-04-16T09:33:03.000Z,87.35
2023-04-16T09:34:07.000Z,88.57
2023-04-16T09:35:11.000Z,90.14
2023-04-16T09:36:15.000Z,90.69
2023-04-16T09:37:19.000Z,90.79
2023-04-16T09:38:23.000Z,90.18
2023-04-16T09:39:27.000Z,91.16
2023-04-16T09:40:31.000Z,89.73
2023-04-16T09:41:35.000Z,89.1
2023-04-16T09:42:39.000Z,91.3
2023-04-16T09:43:43.000Z,91.3
2023-04-16T09:44:47.000Z,88.1
2023-04-16T09:45:51.000Z,90.3
2023-04-16T09:46:55.000Z,88.63
2023-04-16T09:47:59.000Z,89.59
2023-04-16T09:49:03.000Z,90.09
2023-04-16T09:50:07.000Z,86.94
2023-04-16T09:51:11.000Z,86.63
2023-04-16T09:52:15.000Z,87.04
2023-04-16T09:53:19.000Z,87.85
2023-04-16T09:54:23.000Z,90.3
2023-04-16T09:55:27.000Z,87.69
2023-04-16T09:56:32.000Z,88.4
2023-04-16T09:57:36.000Z,88.77
2023-04-16T09:58:40.000Z,90.36
2023-04-16T09:59:44.000Z,90.92
2023-04-16T10:00:48.000Z,90.83
2023-04-16T10:01:57.000Z,90.09
2023-04-16T10:03:01.000Z,90.18
2023-04-16T10:04:05.000Z,91.55
2023-04-16T10:05:09.000Z,91.91
2023-04-16T10:06:14.000Z,91.85
2023-04-16T10:07:18.000Z,94.2
2023-04-16T10:08:22.000Z,92.61
2023-04-16T10:09:26.000Z,92.81
2023-04-16T10:10:30.000Z,92.59
2023-04-16T10:11:34.000Z,93.41
2023-04-16T10:12:38.000Z,95.35
2023-04-16T10:13:42.000Z,95.76
2023-04-16T10:14:46.000Z,95.86
2023-04-16T10:15:50.000Z,94.48
2023-04-16T10:16:54.000Z,95.39
2023-04-16T10:17:58.000Z,95.95
2023-04-16T10:19:02.000Z,96.72
2023-04-16T10:20:06.000Z,96.88
2023-04-16T10:21:10.000Z,96.98
2023-04-16T10:22:14.000Z,95.1
2023-04-16T10:23:18.000Z,94.79
2023-04-16T10:24:22.000Z,94.7
2023-04-16T10:25:26.000Z,95.15
2023-04-16T10:26:30.000Z,95.51
2023-04-16T10:27:34.000Z,94.79
2023-04-16T10:28:38.000Z,95.67
2023-04-16T10:29:42.000Z,95.21
2023-04-16T10:30:46.000Z,93.07
2023-04-16T10:31:50.000Z,92.46
2023-04-16T10:32:54.000Z,93.07
2023-04-16T10:33:58.000Z,93.89
2023-04-16T10:35:02.000Z,93.32
2023-04-16T10:36:06.000Z,93.32
2023-04-16T10:37:10.000Z,94.24
2023-04-16T10:38:14.000Z,93.67
2023-04-16T10:39:18.000Z,93.82
2023-04-16T10:40:22.000Z,94.02
2023-04-16T10:41:26.000Z,95.1
2023-04-16T10:42:30.000Z,95.92
2023-04-16T10:43:34.000Z,96.33
2023-04-16T10:44:38.000Z,95.0
2023-04-16T10:45:42.000Z,94.49
2023-04-16T10:46:46.000Z,94.75
2023-04-16T10:47:50.000Z,94.59
2023-04-16T10:48:55.000Z,95.51
2023-04-16T10:49:59.000Z,96.02
2023-04-16T10:51:03.000Z,95.97
2023-04-16T10:52:07.000Z,95.12
2023-04-16T10:53:11.000Z,95.16
2023-04-16T10:54:15.000Z,94.6
2023-04-16T10:55:19.000Z,94.65
2023-04-16T10:56:23.000Z,94.08
2023-04-16T10:57:27.000Z,94.79
2023-04-16T10:58:31.000Z,95.92
2023-04-16T10:59:35.000Z,96.84
2023-04-16T11:00:39.000Z,96.63
2023-04-16T11:01:43.000Z,96.06
2023-04-16T11:02:47.000Z,97.13
2023-04-16T11:03:51.000Z,97.03
2023-04-16T11:04:55.000Z,96.72
2023-04-16T11:05:59.000Z,97.38
2023-04-16T11:07:03.000Z,97.69
2023-04-16T11:08:07.000Z,98.55
2023-04-16T11:09:11.000Z,98.75
2023-04-16T11:10:15.000Z,98.86
2023-04-16T11:11:19.000Z,99.02
2023-04-16T11:12:23.000Z,99.02
2023-04-16T11:13:27.000Z,98.46
2023-04-16T11:14:31.000Z,98.86
2023-04-16T11:15:35.000Z,97.74
2023-04-16T11:16:39.000Z,98.77
2023-04-16T11:17:43.000Z,98.41
2023-04-16T11:18:47.000Z,97.7
2023-04-16T11:19:56.000Z,97.14
2023-04-16T11:21:00.000Z,96.17
2023-04-16T11:22:04.000Z,96.21
2023-04-16T11:23:08.000Z,97.19
2023-04-16T11:24:12.000Z,95.7
2023-04-16T11:25:16.000Z,95.39
2023-04-16T11:26:20.000Z,94.37
2023-04-16T11:27:25.000Z,96.06
2023-04-16T11:28:29.000Z,95.76
2023-04-16T11:29:33.000Z,93.66
2023-04-16T11:30:37.000Z,95.03
2023-04-16T11:31:41.000Z,95.59
2023-04-16T11:32:45.000Z,96.36
2023-04-16T11:33:49.000Z,95.95
2023-04-16T11:34:53.000Z,95.44
2023-04-16T11:35:57.000Z,95.69
2023-04-16T11:37:01.000Z,96.2
2023-04-16T11:38:05.000Z,97.12
2023-04-16T11:39:09.000Z,99.02
2023-04-16T11:40:13.000Z,98.97
2023-04-16T11:41:17.000Z,98.25
2023-04-16T11:42:21.000Z,98.21
2023-04-16T11:43:25.000Z,97.28
2023-04-16T11:44:29.000Z,98.46
2023-04-16T11:45:33.000Z,98.97
2023-04-16T11:46:37.000Z,98.93
2023-04-16T11:47:42.000Z,98.31
2023-04-16T11:48:46.000Z,98.15
2023-04-16T11:49:50.000Z,98.05
2023-04-16T11:50:54.000Z,98.56
2023-04-16T11:51:58.000Z,98.72
2023-04-16T11:53:02.000Z,98.82
2023-04-16T11:54:06.000Z,98.41
2023-04-16T11:55:11.000Z,97.85
2023-04-16T11:56:14.000Z,97.28
2023-04-16T11:57:19.000Z,98.81
2023-04-16T11:58:23.000Z,99.32
2023-04-16T11:59:27.000Z,99.99
2023-04-16T12:00:31.000Z,99.99
2023-04-16T12:01:35.000Z,99.93
2023-04-16T12:02:39.000Z,99.52
2023-04-16T12:03:43.000Z,99.37
2023-04-16T12:04:47.000Z,99.78
2023-04-16T12:05:51.000Z,99.88
2023-04-16T12:06:55.000Z,99.93
2023-04-16T12:07:59.000Z,99.82
2023-04-16T12:09:03.000Z,99.99
2023-04-16T12:10:07.000Z,99.99
2023-04-16T12:11:11.000Z,99.99
2023-04-16T12:12:15.000Z,99.99
2023-04-16T12:13:19.000Z,99.82
2023-04-16T12:14:23.000Z,99.99
2023-04-16T12:15:27.000Z,99.99
2023-04-16T12:16:31.000Z,99.99
2023-04-16T12:17:35.000Z,99.99
2023-04-16T12:18:39.000Z,99.99
2023-04-16T12:19:43.000Z,99.99
2023-04-16T12:20:47.000Z,99.99
2023-04-16T12:21:51.000Z,99.99
2023-04-16T12:22:55.000Z,99.99
2023-04-16T12:24:00.000Z,99.99
2023-04-16T12:25:04.000Z,99.99
2023-04-16T12:26:08.000Z,99.99
2023-04-16T12:27:12.000Z,99.99
2023-04-16T12:28:16.000Z,99.99
2023-04-16T12:29:20.000Z,99.99
2023-04-16T12:30:24.000Z,99.99
2023-04-16T12:31:28.000Z,99.99
2023-04-16T12:32:32.000Z,99.99
2023-04-16T12:33:36.000Z,99.99
2023-04-16T12:34:40.000Z,99.99
2023-04-16T12:35:49.000Z,99.99
2023-04-16T12:36:53.000Z,99.99
2023-04-16T12:37:58.000Z,99.99
2023-04-16T12:39:02.000Z,99.99
2023-04-16T12:40:06.000Z,99.99
2023-04-16T12:41:10.000Z,99.99
2023-04-16T12:42:14.000Z,99.99
2023-04-16T12:43:18.000Z,99.99
2023-04-16T12:44:22.000Z,99.99
2023-04-16T12:45:26.000Z,99.99
2023-04-16T12:46:30.000Z,99.99
2023-04-16T12:47:34.000Z,99.99
2023-04-16T12:48:39.000Z,99.99
2023-04-16T12:49:43.000Z,99.99
2023-04-16T12:50:47.000Z,99.99
2023-04-16T12:51:51.000Z,99.99
2023-04-16T12:52:55.000Z,99.99
2023-04-16T12:53:59.000Z,99.99
2023-04-16T12:55:03.000Z,99.99
2023-04-16T12:56:07.000Z,99.99
2023-04-16T12:57:12.000Z,99.99
2023-04-16T12:58:16.000Z,99.99
2023-04-16T12:59:21.000Z,99.99
2023-04-16T13:00:25.000Z,99.99
2023-04-16T13:01:29.000Z,99.99
2023-04-16T13:02:33.000Z,99.99
2023-04-16T13:03:37.000Z,99.99
2023-04-16T13:04:41.000Z,99.99
2023-04-16T13:05:45.000Z,99.99
2023-04-16T13:06:50.000Z,99.99
2023-04-16T13:07:54.000Z,99.99
2023-04-16T13:08:58.000Z,99.99
2023-04-16T13:10:03.000Z,99.99
2023-04-16T13:11:07.000Z,99.99
2023-04-16T13:12:11.000Z,99.99
2023-04-16T13:13:15.000Z,99.99
2023-04-16T13:14:19.000Z,99.57
2023-04-16T13:15:23.000Z,99.99
2023-04-16T13:16:27.000Z,99.99
2023-04-16T13:17:36.000Z,99.93
2023-04-16T13:18:40.000Z,99.93
2023-04-16T13:19:44.000Z,99.52
2023-04-16T13:20:48.000Z,99.84
2023-04-16T13:21:52.000Z,99.52
2023-04-16T13:22:57.000Z,99.11
2023-04-16T13:24:01.000Z,99.43
2023-04-16T13:25:05.000Z,99.68
2023-04-16T13:26:09.000Z,99.27
2023-04-16T13:27:13.000Z,99.79
2023-04-16T13:28:17.000Z,98.77
2023-04-16T13:29:21.000Z,98.05
2023-04-16T13:30:25.000Z,98.2
2023-04-16T13:31:29.000Z,99.11
2023-04-16T13:32:33.000Z,99.99
2023-04-16T13:33:37.000Z,99.99
2023-04-16T13:34:42.000Z,98.56
2023-04-16T13:35:46.000Z,99.38
2023-04-16T13:36:50.000Z,99.27
2023-04-16T13:37:54.000Z,99.93
2023-04-16T13:38:58.000Z,99.52
2023-04-16T13:40:02.000Z,99.22
2023-04-16T13:41:07.000Z,99.43
2023-04-16T13:42:11.000Z,99.98
2023-04-16T13:43:15.000Z,99.99
2023-04-16T13:44:19.000Z,99.98
2023-04-16T13:45:23.000Z,99.99
2023-04-16T13:46:27.000Z,99.73
2023-04-16T13:47:31.000Z,99.63